This is the latest recevied weather packets stored in our database for station/object KC5CAM-13. If no packets are shown the sender has not sent any weather packets the latest 10 day(s).
| Time | Temp. | Humidity | Pressure | Rain* | Wind** | Luminosity | Snow |
|---|---|---|---|---|---|---|---|
| 1777820685 | 21.67° C | 59% | 1022 hPa | 0 mm | - | 49 W/m² | - |
| 1777820380 | 21.11° C | 58% | 1021.9 hPa | 0 mm | - | 52 W/m² | - |
| 1777820078 | 21.11° C | 62% | 1021.7 hPa | 0 mm | - | 46 W/m² | - |
| 1777819775 | 20.56° C | 60% | 1021.8 hPa | 0 mm | - | 51 W/m² | - |
| 1777819473 | 20.56° C | 61% | 1021.9 hPa | 0 mm | - | 46 W/m² | - |
| 1777819171 | 20° C | 64% | 1021.7 hPa | 0 mm | - | 44 W/m² | - |
| 1777818867 | 20° C | 63% | 1021.7 hPa | 0 mm | - | 54 W/m² | - |
| 1777818563 | 19.44° C | 64% | 1021.8 hPa | 0 mm | - | 43 W/m² | - |
| 1777818261 | 19.44° C | 64% | 1021.8 hPa | 0 mm | - | 49 W/m² | - |
| 1777817957 | 18.89° C | 63% | 1021.7 hPa | 0 mm | - | 41 W/m² | - |
| 1777817654 | 18.89° C | 66% | 1021.7 hPa | 0 mm | - | 41 W/m² | - |
| 1777817351 | 18.89° C | 64% | 1021.9 hPa | 0 mm | - | 46 W/m² | - |
| 1777817048 | 18.33° C | 66% | 1021.7 hPa | 0 mm | - | 39 W/m² | - |
| 1777816743 | 18.33° C | 68% | 1021.6 hPa | 0 mm | - | 38 W/m² | - |
| 1777816441 | 17.78° C | 68% | 1021.6 hPa | 0 mm | - | 37 W/m² | - |
| 1777816139 | 17.78° C | 67% | 1021.6 hPa | 0 mm | - | 35 W/m² | - |
| 1777815837 | 17.22° C | 68% | 1021.7 hPa | 0 mm | - | 36 W/m² | - |
| 1777815534 | 17.22° C | 69% | 1021.7 hPa | 0 mm | - | 34 W/m² | - |
| 1777815231 | 16.67° C | 69% | 1021.6 hPa | 0 mm | - | 34 W/m² | - |
| 1777814927 | 16.67° C | 70% | 1021.6 hPa | 0 mm | - | 33 W/m² | - |
| 1777814624 | 16.67° C | 71% | 1021.5 hPa | 0 mm | - | 32 W/m² | - |
| 1777814321 | 16.11° C | 70% | 1021.5 hPa | 0 mm | - | 31 W/m² | - |
| 1777814018 | 16.11° C | 71% | 1021.6 hPa | 0 mm | - | 30 W/m² | - |
| 1777813715 | 16.11° C | 72% | 1021.6 hPa | 0 mm | - | 29 W/m² | - |
| 1777813413 | 15.56° C | 72% | 1021.6 hPa | 0 mm | - | 29 W/m² | - |
* Rain latest hour (hover to see other rain measurements)
** Current wind speed in m/s (hover to see current wind gust speed)